sensor_id;sensor_type;location;lat;lon;timestamp;temperature;humidity
59855;DHT22;45732;52.850;6.896;2023-03-01T00:01:06;1.00;99.90
59855;DHT22;45732;52.850;6.896;2023-03-01T00:03:32;1.00;99.90
59855;DHT22;45732;52.850;6.896;2023-03-01T00:05:58;1.00;99.90
59855;DHT22;45732;52.850;6.896;2023-03-01T00:08:25;0.90;99.90
59855;DHT22;45732;52.850;6.896;2023-03-01T00:11:00;0.80;99.90
59855;DHT22;45732;52.850;6.896;2023-03-01T00:13:26;0.80;99.90
59855;DHT22;45732;52.850;6.896;2023-03-01T00:15:51;0.80;99.90
59855;DHT22;45732;52.850;6.896;2023-03-01T00:18:17;0.90;99.90
59855;DHT22;45732;52.850;6.896;2023-03-01T00:20:50;0.80;99.90
59855;DHT22;45732;52.850;6.896;2023-03-01T00:23:16;0.80;99.90
59855;DHT22;45732;52.850;6.896;2023-03-01T00:25:43;0.80;99.90
59855;DHT22;45732;52.850;6.896;2023-03-01T00:28:09;0.90;99.90
59855;DHT22;45732;52.850;6.896;2023-03-01T00:30:34;0.90;99.90
59855;DHT22;45732;52.850;6.896;2023-03-01T00:33:00;0.90;99.90
59855;DHT22;45732;52.850;6.896;2023-03-01T00:35:26;0.90;99.90
59855;DHT22;45732;52.850;6.896;2023-03-01T00:37:51;0.90;99.90
59855;DHT22;45732;52.850;6.896;2023-03-01T00:40:24;0.80;99.90
59855;DHT22;45732;52.850;6.896;2023-03-01T00:42:49;0.70;99.90
59855;DHT22;45732;52.850;6.896;2023-03-01T00:45:16;0.70;99.90
59855;DHT22;45732;52.850;6.896;2023-03-01T00:47:42;0.70;99.90
59855;DHT22;45732;52.850;6.896;2023-03-01T00:50:08;0.60;99.90
59855;DHT22;45732;52.850;6.896;2023-03-01T00:52:34;0.60;99.90
59855;DHT22;45732;52.850;6.896;2023-03-01T00:55:00;0.70;99.90
59855;DHT22;45732;52.850;6.896;2023-03-01T00:57:25;0.70;99.90
59855;DHT22;45732;52.850;6.896;2023-03-01T00:59:51;0.80;99.90
59855;DHT22;45732;52.850;6.896;2023-03-01T01:02:20;0.80;99.90
59855;DHT22;45732;52.850;6.896;2023-03-01T01:04:46;0.70;99.90
59855;DHT22;45732;52.850;6.896;2023-03-01T01:07:13;0.70;99.90
59855;DHT22;45732;52.850;6.896;2023-03-01T01:09:39;0.70;99.90
59855;DHT22;45732;52.850;6.896;2023-03-01T01:12:04;0.70;99.90
59855;DHT22;45732;52.850;6.896;2023-03-01T01:14:31;0.60;99.90
59855;DHT22;45732;52.850;6.896;2023-03-01T01:16:57;0.60;99.90
59855;DHT22;45732;52.850;6.896;2023-03-01T01:19:23;0.60;99.90
59855;DHT22;45732;52.850;6.896;2023-03-01T01:21:49;0.60;99.90
59855;DHT22;45732;52.850;6.896;2023-03-01T01:24:15;0.60;99.90
59855;DHT22;45732;52.850;6.896;2023-03-01T01:26:41;0.60;99.90
59855;DHT22;45732;52.850;6.896;2023-03-01T01:29:07;0.60;99.90
59855;DHT22;45732;52.850;6.896;2023-03-01T01:31:34;0.60;99.90
59855;DHT22;45732;52.850;6.896;2023-03-01T01:34:02;0.50;99.90
59855;DHT22;45732;52.850;6.896;2023-03-01T01:36:28;0.50;99.90
59855;DHT22;45732;52.850;6.896;2023-03-01T01:38:54;0.50;99.90
59855;DHT22;45732;52.850;6.896;2023-03-01T01:41:21;0.40;99.90
59855;DHT22;45732;52.850;6.896;2023-03-01T01:44:08;0.50;99.90
59855;DHT22;45732;52.850;6.896;2023-03-01T01:46:40;0.40;99.90
59855;DHT22;45732;52.850;6.896;2023-03-01T01:51:44;0.40;99.90
59855;DHT22;45732;52.850;6.896;2023-03-01T01:54:22;0.40;99.90
59855;DHT22;45732;52.850;6.896;2023-03-01T01:57:03;0.40;99.90
59855;DHT22;45732;52.850;6.896;2023-03-01T01:59:31;0.40;99.90
59855;DHT22;45732;52.850;6.896;2023-03-01T02:01:59;0.30;99.90
59855;DHT22;45732;52.850;6.896;2023-03-01T02:04:26;0.40;99.90
59855;DHT22;45732;52.850;6.896;2023-03-01T02:07:03;0.30;99.90
59855;DHT22;45732;52.850;6.896;2023-03-01T02:09:32;0.30;99.90
59855;DHT22;45732;52.850;6.896;2023-03-01T02:11:59;0.30;99.90
59855;DHT22;45732;52.850;6.896;2023-03-01T02:14:25;0.30;99.90
59855;DHT22;45732;52.850;6.896;2023-03-01T02:16:51;0.10;99.90
59855;DHT22;45732;52.850;6.896;2023-03-01T02:19:40;0.10;99.90
59855;DHT22;45732;52.850;6.896;2023-03-01T02:22:28;0.20;99.90
59855;DHT22;45732;52.850;6.896;2023-03-01T02:30:20;0.00;99.90
59855;DHT22;45732;52.850;6.896;2023-03-01T02:32:47;0.00;99.90
59855;DHT22;45732;52.850;6.896;2023-03-01T02:35:16;0.00;99.90
59855;DHT22;45732;52.850;6.896;2023-03-01T02:37:44;0.00;99.90
59855;DHT22;45732;52.850;6.896;2023-03-01T02:40:19;0.00;99.90
59855;DHT22;45732;52.850;6.896;2023-03-01T02:42:53;-0.10;99.90
59855;DHT22;45732;52.850;6.896;2023-03-01T02:45:19;-0.10;99.90
59855;DHT22;45732;52.850;6.896;2023-03-01T02:47:45;-0.10;99.90
59855;DHT22;45732;52.850;6.896;2023-03-01T02:50:22;0.00;99.90
59855;DHT22;45732;52.850;6.896;2023-03-01T02:53:00;-0.10;99.90
59855;DHT22;45732;52.850;6.896;2023-03-01T02:55:27;-0.10;99.90
59855;DHT22;45732;52.850;6.896;2023-03-01T02:57:53;-0.10;99.90
59855;DHT22;45732;52.850;6.896;2023-03-01T03:00:24;-0.10;99.90
59855;DHT22;45732;52.850;6.896;2023-03-01T03:02:53;0.00;99.90
59855;DHT22;45732;52.850;6.896;2023-03-01T03:05:24;0.00;99.90
59855;DHT22;45732;52.850;6.896;2023-03-01T03:07:51;0.00;99.90
59855;DHT22;45732;52.850;6.896;2023-03-01T03:10:24;-0.10;99.90
59855;DHT22;45732;52.850;6.896;2023-03-01T03:12:51;-0.10;99.90
59855;DHT22;45732;52.850;6.896;2023-03-01T03:15:17;-0.10;99.90
59855;DHT22;45732;52.850;6.896;2023-03-01T03:17:43;0.00;99.90
59855;DHT22;45732;52.850;6.896;2023-03-01T03:20:11;-0.10;99.90
59855;DHT22;45732;52.850;6.896;2023-03-01T03:22:48;0.00;99.90
59855;DHT22;45732;52.850;6.896;2023-03-01T03:25:15;-0.10;99.90
59855;DHT22;45732;52.850;6.896;2023-03-01T03:27:43;-0.10;99.90
59855;DHT22;45732;52.850;6.896;2023-03-01T03:30:11;-0.10;99.90
59855;DHT22;45732;52.850;6.896;2023-03-01T03:32:42;-0.10;99.90
59855;DHT22;45732;52.850;6.896;2023-03-01T03:35:16;-0.10;99.90
59855;DHT22;45732;52.850;6.896;2023-03-01T03:37:41;0.00;99.90
59855;DHT22;45732;52.850;6.896;2023-03-01T03:40:28;-0.10;99.90
59855;DHT22;45732;52.850;6.896;2023-03-01T03:42:54;-0.10;99.90
59855;DHT22;45732;52.850;6.896;2023-03-01T03:45:20;-0.10;99.90
59855;DHT22;45732;52.850;6.896;2023-03-01T03:47:46;-0.20;99.90
59855;DHT22;45732;52.850;6.896;2023-03-01T03:50:13;-0.20;99.90
59855;DHT22;45732;52.850;6.896;2023-03-01T03:52:39;-0.30;99.90
59855;DHT22;45732;52.850;6.896;2023-03-01T03:55:06;-0.30;99.90
59855;DHT22;45732;52.850;6.896;2023-03-01T03:57:36;-0.30;99.90
59855;DHT22;45732;52.850;6.896;2023-03-01T04:00:02;-0.40;99.90
59855;DHT22;45732;52.850;6.896;2023-03-01T04:02:30;-0.40;99.90
59855;DHT22;45732;52.850;6.896;2023-03-01T04:04:56;-0.40;99.90
59855;DHT22;45732;52.850;6.896;2023-03-01T04:07:21;-0.30;99.90
59855;DHT22;45732;52.850;6.896;2023-03-01T04:09:47;-0.40;99.90
59855;DHT22;45732;52.850;6.896;2023-03-01T04:12:13;-0.40;99.90
59855;DHT22;45732;52.850;6.896;2023-03-01T04:14:38;-0.30;99.90
59855;DHT22;45732;52.850;6.896;2023-03-01T04:17:04;-0.30;99.90
59855;DHT22;45732;52.850;6.896;2023-03-01T04:19:33;-0.30;99.90
59855;DHT22;45732;52.850;6.896;2023-03-01T04:22:02;-0.20;99.90
59855;DHT22;45732;52.850;6.896;2023-03-01T04:24:35;-0.20;99.90
59855;DHT22;45732;52.850;6.896;2023-03-01T04:27:01;-0.20;99.90
59855;DHT22;45732;52.850;6.896;2023-03-01T04:29:27;-0.10;99.90
59855;DHT22;45732;52.850;6.896;2023-03-01T04:31:53;-0.10;99.90
59855;DHT22;45732;52.850;6.896;2023-03-01T04:34:19;-0.10;99.90
59855;DHT22;45732;52.850;6.896;2023-03-01T04:36:45;-0.20;99.90
59855;DHT22;45732;52.850;6.896;2023-03-01T04:39:10;-0.20;99.90
59855;DHT22;45732;52.850;6.896;2023-03-01T04:41:39;-0.20;99.90
59855;DHT22;45732;52.850;6.896;2023-03-01T04:44:06;-0.20;99.90
59855;DHT22;45732;52.850;6.896;2023-03-01T04:46:32;-0.20;99.90
59855;DHT22;45732;52.850;6.896;2023-03-01T04:48:58;-0.20;99.90
59855;DHT22;45732;52.850;6.896;2023-03-01T04:51:24;-0.30;99.90
59855;DHT22;45732;52.850;6.896;2023-03-01T04:53:49;-0.30;99.90
59855;DHT22;45732;52.850;6.896;2023-03-01T04:56:16;-0.40;99.90
59855;DHT22;45732;52.850;6.896;2023-03-01T04:58:43;-0.40;99.90
59855;DHT22;45732;52.850;6.896;2023-03-01T05:01:17;-0.40;99.90
59855;DHT22;45732;52.850;6.896;2023-03-01T05:03:46;-0.50;99.90
59855;DHT22;45732;52.850;6.896;2023-03-01T05:06:12;-0.50;99.90
59855;DHT22;45732;52.850;6.896;2023-03-01T05:08:39;-0.50;99.90
59855;DHT22;45732;52.850;6.896;2023-03-01T05:11:05;-0.50;99.90
59855;DHT22;45732;52.850;6.896;2023-03-01T05:13:35;-0.60;99.90
59855;DHT22;45732;52.850;6.896;2023-03-01T05:16:02;-0.70;99.90
59855;DHT22;45732;52.850;6.896;2023-03-01T05:21:01;-0.60;99.90
59855;DHT22;45732;52.850;6.896;2023-03-01T05:23:27;-0.60;99.90
59855;DHT22;45732;52.850;6.896;2023-03-01T05:25:52;-0.60;99.90
59855;DHT22;45732;52.850;6.896;2023-03-01T05:28:19;-0.60;99.90
59855;DHT22;45732;52.850;6.896;2023-03-01T05:30:46;-0.60;99.90
59855;DHT22;45732;52.850;6.896;2023-03-01T05:33:12;-0.70;99.90
59855;DHT22;45732;52.850;6.896;2023-03-01T05:35:41;-0.70;99.90
59855;DHT22;45732;52.850;6.896;2023-03-01T05:38:09;-0.70;99.90
59855;DHT22;45732;52.850;6.896;2023-03-01T05:40:39;-0.70;99.90
59855;DHT22;45732;52.850;6.896;2023-03-01T05:43:05;-0.80;99.90
59855;DHT22;45732;52.850;6.896;2023-03-01T05:45:31;-0.80;99.90
59855;DHT22;45732;52.850;6.896;2023-03-01T05:48:00;-0.90;99.90
59855;DHT22;45732;52.850;6.896;2023-03-01T05:50:31;-0.90;99.90
59855;DHT22;45732;52.850;6.896;2023-03-01T05:53:00;-0.90;99.90
59855;DHT22;45732;52.850;6.896;2023-03-01T05:55:27;-1.00;99.90
59855;DHT22;45732;52.850;6.896;2023-03-01T05:57:52;-1.00;99.90
59855;DHT22;45732;52.850;6.896;2023-03-01T06:00:19;-0.90;99.90
59855;DHT22;45732;52.850;6.896;2023-03-01T06:02:47;-1.00;99.90
59855;DHT22;45732;52.850;6.896;2023-03-01T06:05:13;-0.90;99.90
59855;DHT22;45732;52.850;6.896;2023-03-01T06:07:40;-0.90;99.90
59855;DHT22;45732;52.850;6.896;2023-03-01T06:10:08;-0.80;99.90
59855;DHT22;45732;52.850;6.896;2023-03-01T06:12:36;-0.80;99.90
59855;DHT22;45732;52.850;6.896;2023-03-01T06:15:02;-0.80;99.90
59855;DHT22;45732;52.850;6.896;2023-03-01T06:17:30;-0.80;99.90
59855;DHT22;45732;52.850;6.896;2023-03-01T06:19:56;-0.80;99.90
59855;DHT22;45732;52.850;6.896;2023-03-01T06:22:21;-0.80;99.90
59855;DHT22;45732;52.850;6.896;2023-03-01T06:24:47;-0.70;99.90
59855;DHT22;45732;52.850;6.896;2023-03-01T06:27:13;-0.70;99.90
59855;DHT22;45732;52.850;6.896;2023-03-01T06:29:39;-0.80;99.90
59855;DHT22;45732;52.850;6.896;2023-03-01T06:32:04;-1.00;99.90
59855;DHT22;45732;52.850;6.896;2023-03-01T06:34:30;-1.10;99.90
59855;DHT22;45732;52.850;6.896;2023-03-01T06:36:56;-1.10;99.90
59855;DHT22;45732;52.850;6.896;2023-03-01T06:39:22;-1.10;99.90
59855;DHT22;45732;52.850;6.896;2023-03-01T06:41:47;-1.00;99.90
59855;DHT22;45732;52.850;6.896;2023-03-01T06:44:13;-1.00;99.90
59855;DHT22;45732;52.850;6.896;2023-03-01T06:46:39;-0.90;99.90
59855;DHT22;45732;52.850;6.896;2023-03-01T06:49:06;-0.90;99.90
59855;DHT22;45732;52.850;6.896;2023-03-01T06:51:35;-1.00;99.90
59855;DHT22;45732;52.850;6.896;2023-03-01T06:54:03;-1.00;99.90
59855;DHT22;45732;52.850;6.896;2023-03-01T06:56:29;-0.90;99.90
59855;DHT22;45732;52.850;6.896;2023-03-01T06:58:55;-0.90;99.90
59855;DHT22;45732;52.850;6.896;2023-03-01T07:01:20;-0.80;99.90
59855;DHT22;45732;52.850;6.896;2023-03-01T07:03:46;-0.80;99.90
59855;DHT22;45732;52.850;6.896;2023-03-01T07:06:12;-0.80;99.90
59855;DHT22;45732;52.850;6.896;2023-03-01T07:08:37;-0.70;99.90
59855;DHT22;45732;52.850;6.896;2023-03-01T07:11:03;-0.60;99.90
59855;DHT22;45732;52.850;6.896;2023-03-01T07:13:29;-0.50;99.90
59855;DHT22;45732;52.850;6.896;2023-03-01T07:15:55;-0.50;99.90
59855;DHT22;45732;52.850;6.896;2023-03-01T07:18:21;-0.40;99.90
59855;DHT22;45732;52.850;6.896;2023-03-01T07:20:47;-0.40;99.90
59855;DHT22;45732;52.850;6.896;2023-03-01T07:23:13;-0.40;99.90
59855;DHT22;45732;52.850;6.896;2023-03-01T07:25:38;-0.30;99.90
59855;DHT22;45732;52.850;6.896;2023-03-01T07:28:04;-0.30;99.90
59855;DHT22;45732;52.850;6.896;2023-03-01T07:30:30;-0.20;99.90
59855;DHT22;45732;52.850;6.896;2023-03-01T07:32:56;-0.10;99.90
59855;DHT22;45732;52.850;6.896;2023-03-01T07:35:23;-0.10;99.90
59855;DHT22;45732;52.850;6.896;2023-03-01T07:37:50;0.00;99.90
59855;DHT22;45732;52.850;6.896;2023-03-01T07:40:16;0.00;99.90
59855;DHT22;45732;52.850;6.896;2023-03-01T07:42:41;0.10;99.90
59855;DHT22;45732;52.850;6.896;2023-03-01T07:45:07;0.10;99.90
59855;DHT22;45732;52.850;6.896;2023-03-01T07:47:33;0.20;99.90
59855;DHT22;45732;52.850;6.896;2023-03-01T07:49:59;0.30;99.90
59855;DHT22;45732;52.850;6.896;2023-03-01T07:52:26;0.40;99.90
59855;DHT22;45732;52.850;6.896;2023-03-01T07:54:52;0.40;99.90
59855;DHT22;45732;52.850;6.896;2023-03-01T07:57:18;0.50;99.90
59855;DHT22;45732;52.850;6.896;2023-03-01T07:59:43;0.50;99.90
59855;DHT22;45732;52.850;6.896;2023-03-01T08:02:10;0.60;99.90
59855;DHT22;45732;52.850;6.896;2023-03-01T08:04:36;0.70;99.90
59855;DHT22;45732;52.850;6.896;2023-03-01T08:07:05;0.80;99.90
59855;DHT22;45732;52.850;6.896;2023-03-01T08:09:31;0.90;99.90
59855;DHT22;45732;52.850;6.896;2023-03-01T08:11:57;0.80;99.90
59855;DHT22;45732;52.850;6.896;2023-03-01T08:14:26;0.90;99.90
59855;DHT22;45732;52.850;6.896;2023-03-01T08:16:51;0.90;99.90
59855;DHT22;45732;52.850;6.896;2023-03-01T08:19:17;1.00;99.90
59855;DHT22;45732;52.850;6.896;2023-03-01T08:21:43;1.10;99.90
59855;DHT22;45732;52.850;6.896;2023-03-01T08:24:09;1.10;99.90
59855;DHT22;45732;52.850;6.896;2023-03-01T08:26:36;1.20;99.90
59855;DHT22;45732;52.850;6.896;2023-03-01T08:29:02;1.20;99.90
59855;DHT22;45732;52.850;6.896;2023-03-01T08:31:34;1.20;99.90
59855;DHT22;45732;52.850;6.896;2023-03-01T08:34:07;1.30;99.90
59855;DHT22;45732;52.850;6.896;2023-03-01T08:36:38;1.40;99.90
59855;DHT22;45732;52.850;6.896;2023-03-01T08:39:06;1.40;99.90
59855;DHT22;45732;52.850;6.896;2023-03-01T08:41:32;1.50;99.90
59855;DHT22;45732;52.850;6.896;2023-03-01T08:43:58;1.60;99.90
59855;DHT22;45732;52.850;6.896;2023-03-01T08:46:36;1.70;99.90
59855;DHT22;45732;52.850;6.896;2023-03-01T08:49:11;1.70;99.90
59855;DHT22;45732;52.850;6.896;2023-03-01T08:51:38;1.80;99.90
59855;DHT22;45732;52.850;6.896;2023-03-01T08:54:09;1.90;99.90
59855;DHT22;45732;52.850;6.896;2023-03-01T08:56:35;2.00;99.90
59855;DHT22;45732;52.850;6.896;2023-03-01T08:59:01;2.00;99.90
59855;DHT22;45732;52.850;6.896;2023-03-01T09:01:26;2.10;99.90
59855;DHT22;45732;52.850;6.896;2023-03-01T09:03:52;2.20;99.90
59855;DHT22;45732;52.850;6.896;2023-03-01T09:06:18;2.20;99.90
59855;DHT22;45732;52.850;6.896;2023-03-01T09:08:46;2.30;99.90
59855;DHT22;45732;52.850;6.896;2023-03-01T09:11:15;2.40;99.90
59855;DHT22;45732;52.850;6.896;2023-03-01T09:13:42;2.40;99.90
59855;DHT22;45732;52.850;6.896;2023-03-01T09:16:08;2.50;99.90
59855;DHT22;45732;52.850;6.896;2023-03-01T09:18:35;2.60;99.90
59855;DHT22;45732;52.850;6.896;2023-03-01T09:21:10;2.60;99.90
59855;DHT22;45732;52.850;6.896;2023-03-01T09:23:38;2.70;99.90
59855;DHT22;45732;52.850;6.896;2023-03-01T09:26:06;2.90;99.90
59855;DHT22;45732;52.850;6.896;2023-03-01T09:28:32;3.00;99.90
59855;DHT22;45732;52.850;6.896;2023-03-01T09:30:59;3.00;99.90
59855;DHT22;45732;52.850;6.896;2023-03-01T09:33:25;3.10;99.90
59855;DHT22;45732;52.850;6.896;2023-03-01T09:35:59;3.30;99.90
59855;DHT22;45732;52.850;6.896;2023-03-01T09:38:24;3.30;99.90
59855;DHT22;45732;52.850;6.896;2023-03-01T09:40:51;3.40;99.90
59855;DHT22;45732;52.850;6.896;2023-03-01T09:43:37;3.40;99.90
59855;DHT22;45732;52.850;6.896;2023-03-01T09:46:09;3.50;99.90
59855;DHT22;45732;52.850;6.896;2023-03-01T09:48:46;3.50;99.90
59855;DHT22;45732;52.850;6.896;2023-03-01T09:51:18;3.60;99.90
59855;DHT22;45732;52.850;6.896;2023-03-01T09:53:44;3.70;99.90
59855;DHT22;45732;52.850;6.896;2023-03-01T09:56:22;3.80;99.90
59855;DHT22;45732;52.850;6.896;2023-03-01T10:02:02;4.00;99.90
59855;DHT22;45732;52.850;6.896;2023-03-01T10:10:07;4.20;99.90
59855;DHT22;45732;52.850;6.896;2023-03-01T10:12:37;4.30;99.90
59855;DHT22;45732;52.850;6.896;2023-03-01T10:15:32;4.40;99.90
59855;DHT22;45732;52.850;6.896;2023-03-01T10:17:57;4.50;99.90
59855;DHT22;45732;52.850;6.896;2023-03-01T10:23:16;4.60;99.90
59855;DHT22;45732;52.850;6.896;2023-03-01T10:28:55;4.80;99.90
59855;DHT22;45732;52.850;6.896;2023-03-01T10:31:27;4.90;99.90
59855;DHT22;45732;52.850;6.896;2023-03-01T10:34:04;4.90;99.90
59855;DHT22;45732;52.850;6.896;2023-03-01T10:36:33;5.00;99.90
59855;DHT22;45732;52.850;6.896;2023-03-01T10:39:04;5.10;99.90
59855;DHT22;45732;52.850;6.896;2023-03-01T10:41:47;5.20;99.90
59855;DHT22;45732;52.850;6.896;2023-03-01T10:44:36;5.30;99.90
59855;DHT22;45732;52.850;6.896;2023-03-01T10:47:02;5.40;99.90
59855;DHT22;45732;52.850;6.896;2023-03-01T10:49:29;5.40;99.90
59855;DHT22;45732;52.850;6.896;2023-03-01T10:51:55;5.50;99.90
59855;DHT22;45732;52.850;6.896;2023-03-01T10:54:31;5.60;99.90
59855;DHT22;45732;52.850;6.896;2023-03-01T10:57:02;5.70;99.90
59855;DHT22;45732;52.850;6.896;2023-03-01T10:59:33;5.70;99.90
59855;DHT22;45732;52.850;6.896;2023-03-01T11:02:23;5.70;99.90
59855;DHT22;45732;52.850;6.896;2023-03-01T11:05:16;5.80;99.90
59855;DHT22;45732;52.850;6.896;2023-03-01T11:07:52;5.80;99.90
59855;DHT22;45732;52.850;6.896;2023-03-01T11:10:30;5.90;99.90
59855;DHT22;45732;52.850;6.896;2023-03-01T11:13:16;5.90;99.90
59855;DHT22;45732;52.850;6.896;2023-03-01T11:15:43;5.90;99.90
59855;DHT22;45732;52.850;6.896;2023-03-01T11:18:22;5.90;99.90
59855;DHT22;45732;52.850;6.896;2023-03-01T11:20:49;5.90;99.90
59855;DHT22;45732;52.850;6.896;2023-03-01T11:23:17;5.90;99.90
59855;DHT22;45732;52.850;6.896;2023-03-01T11:25:55;5.90;99.90
59855;DHT22;45732;52.850;6.896;2023-03-01T11:28:22;6.00;99.90
59855;DHT22;45732;52.850;6.896;2023-03-01T11:31:06;6.00;99.90
59855;DHT22;45732;52.850;6.896;2023-03-01T11:33:39;6.10;99.90
59855;DHT22;45732;52.850;6.896;2023-03-01T11:39:13;6.10;99.90
59855;DHT22;45732;52.850;6.896;2023-03-01T11:41:41;6.10;99.90
59855;DHT22;45732;52.850;6.896;2023-03-01T11:44:21;6.10;99.90
59855;DHT22;45732;52.850;6.896;2023-03-01T11:52:22;6.20;99.90
59855;DHT22;45732;52.850;6.896;2023-03-01T12:00:07;6.20;99.90
59855;DHT22;45732;52.850;6.896;2023-03-01T12:22:43;6.30;99.90
59855;DHT22;45732;52.850;6.896;2023-03-01T12:30:46;6.40;99.90
59855;DHT22;45732;52.850;6.896;2023-03-01T12:33:29;6.40;99.90
59855;DHT22;45732;52.850;6.896;2023-03-01T12:38:32;6.50;99.90
59855;DHT22;45732;52.850;6.896;2023-03-01T12:44:18;6.50;99.90
59855;DHT22;45732;52.850;6.896;2023-03-01T12:49:36;6.50;99.90
59855;DHT22;45732;52.850;6.896;2023-03-01T12:54:46;6.60;99.90
59855;DHT22;45732;52.850;6.896;2023-03-01T12:57:30;6.60;99.90
59855;DHT22;45732;52.850;6.896;2023-03-01T13:03:12;6.60;99.90
59855;DHT22;45732;52.850;6.896;2023-03-01T13:08:41;6.80;99.90
59855;DHT22;45732;52.850;6.896;2023-03-01T13:11:19;6.70;99.90
59855;DHT22;45732;52.850;6.896;2023-03-01T13:13:46;6.80;99.90
59855;DHT22;45732;52.850;6.896;2023-03-01T13:19:18;6.80;99.90
59855;DHT22;45732;52.850;6.896;2023-03-01T13:21:46;6.80;99.90
59855;DHT22;45732;52.850;6.896;2023-03-01T13:24:38;6.90;99.90
59855;DHT22;45732;52.850;6.896;2023-03-01T13:32:21;7.00;99.90
59855;DHT22;45732;52.850;6.896;2023-03-01T13:34:49;7.00;99.90
59855;DHT22;45732;52.850;6.896;2023-03-01T13:37:23;7.00;99.90
59855;DHT22;45732;52.850;6.896;2023-03-01T13:39:51;7.00;99.90
59855;DHT22;45732;52.850;6.896;2023-03-01T13:45:15;7.10;99.90
59855;DHT22;45732;52.850;6.896;2023-03-01T13:47:42;7.10;99.90
59855;DHT22;45732;52.850;6.896;2023-03-01T13:50:20;7.10;99.90
59855;DHT22;45732;52.850;6.896;2023-03-01T13:52:52;7.20;99.90
59855;DHT22;45732;52.850;6.896;2023-03-01T13:57:59;7.20;99.90
59855;DHT22;45732;52.850;6.896;2023-03-01T14:03:09;7.30;99.90
59855;DHT22;45732;52.850;6.896;2023-03-01T14:05:35;7.40;99.90
59855;DHT22;45732;52.850;6.896;2023-03-01T14:08:03;7.40;99.90
59855;DHT22;45732;52.850;6.896;2023-03-01T14:10:39;7.50;99.90
59855;DHT22;45732;52.850;6.896;2023-03-01T14:19:18;7.70;99.90
59855;DHT22;45732;52.850;6.896;2023-03-01T14:21:46;7.70;99.90
59855;DHT22;45732;52.850;6.896;2023-03-01T14:24:21;7.70;99.90
59855;DHT22;45732;52.850;6.896;2023-03-01T14:26:48;7.60;99.90
59855;DHT22;45732;52.850;6.896;2023-03-01T14:32:12;7.70;99.90
59855;DHT22;45732;52.850;6.896;2023-03-01T14:34:44;7.80;99.90
59855;DHT22;45732;52.850;6.896;2023-03-01T14:37:26;7.80;99.90
59855;DHT22;45732;52.850;6.896;2023-03-01T14:39:52;7.80;99.90
59855;DHT22;45732;52.850;6.896;2023-03-01T14:42:20;7.80;99.90
59855;DHT22;45732;52.850;6.896;2023-03-01T14:44:48;7.80;99.90
59855;DHT22;45732;52.850;6.896;2023-03-01T14:47:26;7.80;99.90
59855;DHT22;45732;52.850;6.896;2023-03-01T14:50:00;7.80;99.90
59855;DHT22;45732;52.850;6.896;2023-03-01T14:52:38;7.80;99.90
59855;DHT22;45732;52.850;6.896;2023-03-01T14:55:13;7.80;99.90
59855;DHT22;45732;52.850;6.896;2023-03-01T14:57:44;7.90;99.90
59855;DHT22;45732;52.850;6.896;2023-03-01T15:00:21;7.80;99.90
59855;DHT22;45732;52.850;6.896;2023-03-01T15:02:49;7.80;99.90
59855;DHT22;45732;52.850;6.896;2023-03-01T15:05:22;7.70;99.90
59855;DHT22;45732;52.850;6.896;2023-03-01T15:07:51;7.70;99.90
59855;DHT22;45732;52.850;6.896;2023-03-01T15:10:23;7.70;99.90
59855;DHT22;45732;52.850;6.896;2023-03-01T15:12:49;7.80;99.90
59855;DHT22;45732;52.850;6.896;2023-03-01T15:15:34;7.80;99.90
59855;DHT22;45732;52.850;6.896;2023-03-01T15:20:38;7.80;99.90
59855;DHT22;45732;52.850;6.896;2023-03-01T15:23:05;7.70;99.90
59855;DHT22;45732;52.850;6.896;2023-03-01T15:25:32;7.70;99.90
59855;DHT22;45732;52.850;6.896;2023-03-01T15:27:59;7.70;99.90
59855;DHT22;45732;52.850;6.896;2023-03-01T15:30:32;7.70;99.90
59855;DHT22;45732;52.850;6.896;2023-03-01T15:33:34;7.70;99.90
59855;DHT22;45732;52.850;6.896;2023-03-01T15:36:02;7.70;99.90
59855;DHT22;45732;52.850;6.896;2023-03-01T15:38:54;7.70;99.90
59855;DHT22;45732;52.850;6.896;2023-03-01T15:41:27;7.60;99.90
59855;DHT22;45732;52.850;6.896;2023-03-01T15:43:57;7.60;99.90
59855;DHT22;45732;52.850;6.896;2023-03-01T15:46:32;7.50;99.90
59855;DHT22;45732;52.850;6.896;2023-03-01T15:49:02;7.50;99.90
59855;DHT22;45732;52.850;6.896;2023-03-01T15:51:33;7.50;99.90
59855;DHT22;45732;52.850;6.896;2023-03-01T15:54:03;7.50;99.90
59855;DHT22;45732;52.850;6.896;2023-03-01T15:56:29;7.50;99.90
59855;DHT22;45732;52.850;6.896;2023-03-01T15:59:00;7.60;99.90
59855;DHT22;45732;52.850;6.896;2023-03-01T16:01:26;7.60;99.90
59855;DHT22;45732;52.850;6.896;2023-03-01T16:03:52;7.70;99.90
59855;DHT22;45732;52.850;6.896;2023-03-01T16:06:19;7.80;99.90
59855;DHT22;45732;52.850;6.896;2023-03-01T16:08:44;7.90;99.90
59855;DHT22;45732;52.850;6.896;2023-03-01T16:11:16;8.00;99.90
59855;DHT22;45732;52.850;6.896;2023-03-01T16:13:42;8.00;99.90
59855;DHT22;45732;52.850;6.896;2023-03-01T16:16:13;7.90;99.90
59855;DHT22;45732;52.850;6.896;2023-03-01T16:18:43;7.80;99.90
59855;DHT22;45732;52.850;6.896;2023-03-01T16:21:18;7.80;99.90
59855;DHT22;45732;52.850;6.896;2023-03-01T16:23:45;7.80;99.90
59855;DHT22;45732;52.850;6.896;2023-03-01T16:26:12;7.80;99.90
59855;DHT22;45732;52.850;6.896;2023-03-01T16:28:40;7.80;99.90
59855;DHT22;45732;52.850;6.896;2023-03-01T16:31:05;7.60;99.90
59855;DHT22;45732;52.850;6.896;2023-03-01T16:33:31;7.50;99.90
59855;DHT22;45732;52.850;6.896;2023-03-01T16:35:57;7.50;99.90
59855;DHT22;45732;52.850;6.896;2023-03-01T16:38:25;7.40;99.90
59855;DHT22;45732;52.850;6.896;2023-03-01T16:40:51;7.30;99.90
59855;DHT22;45732;52.850;6.896;2023-03-01T16:43:17;7.10;99.90
59855;DHT22;45732;52.850;6.896;2023-03-01T16:45:43;7.10;99.90
59855;DHT22;45732;52.850;6.896;2023-03-01T16:48:10;7.10;99.90
59855;DHT22;45732;52.850;6.896;2023-03-01T16:50:36;6.90;99.90
59855;DHT22;45732;52.850;6.896;2023-03-01T16:53:02;6.80;99.90
59855;DHT22;45732;52.850;6.896;2023-03-01T16:55:28;6.70;99.90
59855;DHT22;45732;52.850;6.896;2023-03-01T16:57:54;6.60;99.90
59855;DHT22;45732;52.850;6.896;2023-03-01T17:00:20;6.40;99.90
59855;DHT22;45732;52.850;6.896;2023-03-01T17:02:46;6.30;99.90
59855;DHT22;45732;52.850;6.896;2023-03-01T17:05:12;6.20;99.90
59855;DHT22;45732;52.850;6.896;2023-03-01T17:07:38;6.10;99.90
59855;DHT22;45732;52.850;6.896;2023-03-01T17:10:05;6.00;99.90
59855;DHT22;45732;52.850;6.896;2023-03-01T17:12:33;5.90;99.90
59855;DHT22;45732;52.850;6.896;2023-03-01T17:14:59;5.80;99.90
59855;DHT22;45732;52.850;6.896;2023-03-01T17:17:25;5.80;99.90
59855;DHT22;45732;52.850;6.896;2023-03-01T17:19:51;5.80;99.90
59855;DHT22;45732;52.850;6.896;2023-03-01T17:22:18;5.70;99.90
59855;DHT22;45732;52.850;6.896;2023-03-01T17:24:44;5.70;99.90
59855;DHT22;45732;52.850;6.896;2023-03-01T17:27:11;5.70;99.90
59855;DHT22;45732;52.850;6.896;2023-03-01T17:29:38;5.50;99.90
59855;DHT22;45732;52.850;6.896;2023-03-01T17:32:04;5.50;99.90
59855;DHT22;45732;52.850;6.896;2023-03-01T17:34:31;5.50;99.90
59855;DHT22;45732;52.850;6.896;2023-03-01T17:36:57;5.40;99.90
59855;DHT22;45732;52.850;6.896;2023-03-01T17:39:23;5.30;99.90
59855;DHT22;45732;52.850;6.896;2023-03-01T17:41:56;5.40;99.90
59855;DHT22;45732;52.850;6.896;2023-03-01T17:44:23;5.30;99.90